createdAt,value
2022-08-18T00:04:35.452Z,12.25
2022-08-18T00:09:34.778Z,27.53
2022-08-18T00:14:32.399Z,50.90
2022-08-18T00:19:46.989Z,40.47
2022-08-18T00:24:47.766Z,40.33
2022-08-18T00:29:45.965Z,57.70
2022-08-18T00:34:43.647Z,55.55
2022-08-18T00:39:43.507Z,31.38
2022-08-18T00:44:45.156Z,46.97
2022-08-18T00:49:45.295Z,46.75
2022-08-18T00:54:46.546Z,48.45
2022-08-18T00:59:48.389Z,43.53
2022-08-18T01:04:53.085Z,38.67
2022-08-18T01:09:51.229Z,38.42
2022-08-18T01:14:48.372Z,39.53
2022-08-18T01:20:06.430Z,39.92
2022-08-18T01:25:26.217Z,37.13
2022-08-18T01:30:25.035Z,32.53
2022-08-18T01:35:26.261Z,37.50
2022-08-18T01:41:22.597Z,27.83
2022-08-18T01:45:42.272Z,32.80
2022-08-18T01:50:40.840Z,22.33
2022-08-18T01:55:43.877Z,15.52
2022-08-18T02:00:42.176Z,25.42
2022-08-18T02:05:43.850Z,17.27
2022-08-18T02:10:44.250Z,17.75
2022-08-18T02:15:42.028Z,11.93
2022-08-18T02:20:40.660Z,11.80
2022-08-18T02:25:41.086Z,13.15
2022-08-18T02:30:42.203Z,11.13
2022-08-18T02:35:43.442Z,10.00
2022-08-18T02:40:40.400Z,10.63
2022-08-18T02:45:38.888Z,10.20
2022-08-18T02:50:44.279Z,8.55
2022-08-18T02:55:41.077Z,10.60
2022-08-18T03:00:40.196Z,11.68
2022-08-18T03:05:38.583Z,8.43
2022-08-18T03:10:36.946Z,8.10
2022-08-18T03:15:33.794Z,13.23
2022-08-18T03:20:31.684Z,11.63
2022-08-18T03:25:28.706Z,11.30
2022-08-18T03:30:25.536Z,9.70
2022-08-18T03:35:22.655Z,9.43
2022-08-18T03:40:20.435Z,15.43
2022-08-18T03:45:18.204Z,12.23
2022-08-18T03:50:15.166Z,19.05
2022-08-18T03:55:12.128Z,14.48
2022-08-18T04:00:16.569Z,17.20
2022-08-18T04:10:20.864Z,36.88
2022-08-18T04:21:09.846Z,39.33
2022-08-18T04:26:19.131Z,45.75
2022-08-18T04:31:22.997Z,31.13
2022-08-18T04:36:20.995Z,23.27
2022-08-18T04:41:54.518Z,20.27
2022-08-18T04:47:00.161Z,19.75
2022-08-18T04:52:40.548Z,19.52
2022-08-18T04:57:39.427Z,16.13
2022-08-18T05:02:43.517Z,12.88
2022-08-18T05:07:53.646Z,11.43
2022-08-18T05:12:54.136Z,13.70
2022-08-18T05:18:03.585Z,10.73
2022-08-18T05:24:05.575Z,15.32
2022-08-18T05:29:17.817Z,11.57
2022-08-18T05:34:20.021Z,11.35
2022-08-18T05:39:25.268Z,12.57
2022-08-18T05:44:27.194Z,10.73
2022-08-18T05:49:27.127Z,10.77
2022-08-18T05:54:56.926Z,12.48
2022-08-18T06:00:36.074Z,8.57
2022-08-18T06:05:56.940Z,13.68
2022-08-18T06:11:06.047Z,8.57
2022-08-18T12:02:30.968Z,12.63
2022-08-18T12:07:37.043Z,8.00
2022-08-18T12:12:39.099Z,7.40
2022-08-18T12:17:36.875Z,8.93
2022-08-18T12:22:35.337Z,10.88
2022-08-18T12:27:43.306Z,8.20
2022-08-18T12:32:49.738Z,9.25
2022-08-18T12:37:59.563Z,9.23
2022-08-18T12:43:10.546Z,9.25
2022-08-18T12:48:18.519Z,7.95
2022-08-18T12:53:58.037Z,8.38
2022-08-18T12:58:53.287Z,8.13
2022-08-18T13:04:12.232Z,8.95
2022-08-18T13:09:16.619Z,8.68
2022-08-18T13:15:00.977Z,7.22
2022-08-18T13:20:07.896Z,9.40
2022-08-18T13:25:08.319Z,8.55
2022-08-18T13:30:16.766Z,8.63
2022-08-18T13:35:29.972Z,13.82
2022-08-18T13:40:45.654Z,10.57
2022-08-18T13:45:46.448Z,10.63
2022-08-18T13:51:02.592Z,14.15
2022-08-18T13:56:00.329Z,14.35
2022-08-18T14:01:22.752Z,14.70
2022-08-18T14:06:46.883Z,15.52
2022-08-18T14:11:54.183Z,10.80
2022-08-18T14:16:51.398Z,10.05
2022-08-18T14:22:31.198Z,8.70
2022-08-18T14:27:57.533Z,9.55
2022-08-18T14:32:55.088Z,10.43
2022-08-18T14:37:58.028Z,11.30
2022-08-18T14:42:58.013Z,8.98
2022-08-18T14:47:57.748Z,8.07
2022-08-18T14:53:02.029Z,10.27
2022-08-18T14:58:35.679Z,8.82
2022-08-18T15:03:43.726Z,8.52
2022-08-18T15:08:45.384Z,10.10
2022-08-18T15:14:04.974Z,9.85
2022-08-18T15:19:03.286Z,8.38
2022-08-18T15:24:40.230Z,8.35
2022-08-18T15:29:41.455Z,9.15
2022-08-18T15:34:47.115Z,10.18
2022-08-18T15:39:51.893Z,8.45
2022-08-18T15:45:16.772Z,8.30
2022-08-18T15:50:21.972Z,9.93
2022-08-18T15:55:28.089Z,8.15
2022-08-18T16:00:27.521Z,29.25
2022-08-18T16:05:32.774Z,10.75
2022-08-18T16:11:03.427Z,8.20
2022-08-18T16:16:13.261Z,11.05
2022-08-18T16:21:12.704Z,9.52
2022-08-18T16:26:37.619Z,10.07
2022-08-18T16:31:41.392Z,11.07
2022-08-18T16:36:41.138Z,11.48
2022-08-18T16:42:17.178Z,11.23
2022-08-18T16:48:02.621Z,12.45
2022-08-18T16:53:19.885Z,11.75
2022-08-18T16:58:40.303Z,12.70
2022-08-18T17:10:17.669Z,10.63
2022-08-18T17:15:22.086Z,10.98
2022-08-18T17:20:25.545Z,11.82
2022-08-18T17:25:33.308Z,9.95
2022-08-18T17:36:36.513Z,9.50
2022-08-18T17:41:59.965Z,11.82
2022-08-18T17:52:40.473Z,9.90
2022-08-18T17:58:09.271Z,10.75
2022-08-18T18:03:13.442Z,12.70
2022-08-18T18:08:11.415Z,10.90
2022-08-18T18:13:28.455Z,12.30
2022-08-18T18:18:43.720Z,11.13
2022-08-18T18:23:45.631Z,10.80
2022-08-18T18:28:45.526Z,11.30
2022-08-18T18:33:48.122Z,14.50
2022-08-18T18:39:16.125Z,10.32
2022-08-18T18:44:21.294Z,14.63
2022-08-18T18:49:28.287Z,15.80
2022-08-18T18:54:49.614Z,13.85
2022-08-18T19:00:03.861Z,12.77
2022-08-18T19:10:17.685Z,10.70
2022-08-18T19:15:15.967Z,10.00
2022-08-18T19:20:20.164Z,11.73
2022-08-18T19:25:25.113Z,10.10
2022-08-18T19:30:50.482Z,11.90
2022-08-18T19:35:58.985Z,12.70
2022-08-18T19:41:04.933Z,13.55
2022-08-18T19:46:23.051Z,9.77
2022-08-18T19:51:29.002Z,10.40
2022-08-18T19:56:52.252Z,13.00
2022-08-18T20:02:01.652Z,10.53
2022-08-18T20:07:37.612Z,10.95
2022-08-18T20:12:53.157Z,12.43
2022-08-18T20:18:22.530Z,11.77
2022-08-18T20:23:56.637Z,12.93
2022-08-18T20:29:34.120Z,10.38
2022-08-18T20:34:34.083Z,12.05
2022-08-18T20:39:41.826Z,13.15
2022-08-18T20:44:57.176Z,12.02
2022-08-18T20:50:20.965Z,14.02
2022-08-18T20:55:33.987Z,12.00
2022-08-18T21:00:36.439Z,14.55
2022-08-18T21:05:44.374Z,9.60
2022-08-18T21:10:50.175Z,11.80
2022-08-18T21:15:48.815Z,8.85
2022-08-18T21:20:47.490Z,9.98
2022-08-18T21:25:52.171Z,9.40
2022-08-18T21:31:43.009Z,9.20
2022-08-18T21:36:31.760Z,9.00
2022-08-18T21:41:31.981Z,9.80
2022-08-18T21:46:36.494Z,9.35
2022-08-18T21:51:44.420Z,10.88
2022-08-18T21:57:19.675Z,16.70
2022-08-18T22:02:23.446Z,10.43
2022-08-18T22:07:34.704Z,10.55
2022-08-18T22:12:52.746Z,12.18
2022-08-18T22:17:54.447Z,11.05
2022-08-18T22:23:09.459Z,9.77
2022-08-18T22:28:07.577Z,11.43
2022-08-18T22:33:05.272Z,9.85
2022-08-18T22:38:02.329Z,7.65
2022-08-18T22:42:59.358Z,11.23
2022-08-18T22:47:57.696Z,8.60
2022-08-18T22:52:56.761Z,9.45
2022-08-18T22:57:56.306Z,8.70
2022-08-18T23:02:54.814Z,10.55
2022-08-18T23:07:53.100Z,8.48
2022-08-18T23:12:50.109Z,7.97
2022-08-18T23:17:48.474Z,8.82
2022-08-18T23:22:46.785Z,7.38
2022-08-18T23:27:44.803Z,8.07
2022-08-18T23:32:43.196Z,10.93
2022-08-18T23:37:41.082Z,9.10
2022-08-18T23:42:41.328Z,9.95
2022-08-18T23:47:41.564Z,9.40
2022-08-18T23:52:39.706Z,10.75
2022-08-18T23:57:48.926Z,8.48
